sensor_id;sensor_type;location;lat;lon;timestamp;P1;durP1;ratioP1;P2;durP2;ratioP2
15307;SDS011;7755;52.208;6.964;2022-07-24T00:02:35;6.20;;;5.70;;
15307;SDS011;7755;52.208;6.964;2022-07-24T00:06:37;6.70;;;6.10;;
15307;SDS011;7755;52.208;6.964;2022-07-24T00:10:39;6.70;;;6.10;;
15307;SDS011;7755;52.208;6.964;2022-07-24T00:14:42;7.70;;;7.10;;
15307;SDS011;7755;52.208;6.964;2022-07-24T00:18:49;7.73;;;7.10;;
15307;SDS011;7755;52.208;6.964;2022-07-24T00:22:51;6.10;;;5.60;;
15307;SDS011;7755;52.208;6.964;2022-07-24T00:26:53;7.30;;;6.57;;
15307;SDS011;7755;52.208;6.964;2022-07-24T00:30:56;7.13;;;6.53;;
15307;SDS011;7755;52.208;6.964;2022-07-24T00:35:00;5.47;;;5.00;;
15307;SDS011;7755;52.208;6.964;2022-07-24T00:39:02;6.30;;;5.80;;
15307;SDS011;7755;52.208;6.964;2022-07-24T00:43:05;6.80;;;6.20;;
15307;SDS011;7755;52.208;6.964;2022-07-24T00:47:09;6.10;;;5.60;;
15307;SDS011;7755;52.208;6.964;2022-07-24T00:51:12;5.80;;;5.30;;
15307;SDS011;7755;52.208;6.964;2022-07-24T00:55:16;6.60;;;5.97;;
15307;SDS011;7755;52.208;6.964;2022-07-24T00:59:19;6.07;;;5.57;;
15307;SDS011;7755;52.208;6.964;2022-07-24T01:03:22;5.90;;;5.40;;
15307;SDS011;7755;52.208;6.964;2022-07-24T01:07:26;6.80;;;6.20;;
15307;SDS011;7755;52.208;6.964;2022-07-24T01:11:28;6.17;;;5.57;;
15307;SDS011;7755;52.208;6.964;2022-07-24T01:15:37;6.27;;;5.87;;
15307;SDS011;7755;52.208;6.964;2022-07-24T01:24:24;6.20;;;5.70;;
15307;SDS011;7755;52.208;6.964;2022-07-24T01:28:26;6.73;;;6.13;;
15307;SDS011;7755;52.208;6.964;2022-07-24T01:32:28;6.80;;;6.30;;
15307;SDS011;7755;52.208;6.964;2022-07-24T01:36:30;5.90;;;5.40;;
15307;SDS011;7755;52.208;6.964;2022-07-24T01:40:33;6.37;;;5.87;;
15307;SDS011;7755;52.208;6.964;2022-07-24T01:44:35;5.97;;;5.57;;
15307;SDS011;7755;52.208;6.964;2022-07-24T01:48:37;6.57;;;5.97;;
15307;SDS011;7755;52.208;6.964;2022-07-24T01:52:40;6.27;;;5.77;;
15307;SDS011;7755;52.208;6.964;2022-07-24T01:56:44;4.83;;;4.53;;
15307;SDS011;7755;52.208;6.964;2022-07-24T02:00:47;5.70;;;5.20;;
15307;SDS011;7755;52.208;6.964;2022-07-24T02:04:49;6.10;;;5.63;;
15307;SDS011;7755;52.208;6.964;2022-07-24T02:08:51;5.87;;;5.40;;
15307;SDS011;7755;52.208;6.964;2022-07-24T02:12:56;5.43;;;5.03;;
15307;SDS011;7755;52.208;6.964;2022-07-24T02:16:59;5.20;;;4.73;;
15307;SDS011;7755;52.208;6.964;2022-07-24T02:21:01;5.53;;;5.13;;
15307;SDS011;7755;52.208;6.964;2022-07-24T02:25:05;9.33;;;8.43;;
15307;SDS011;7755;52.208;6.964;2022-07-24T02:29:11;7.73;;;7.13;;
15307;SDS011;7755;52.208;6.964;2022-07-24T02:33:13;6.00;;;5.50;;
15307;SDS011;7755;52.208;6.964;2022-07-24T02:37:16;6.00;;;5.53;;
15307;SDS011;7755;52.208;6.964;2022-07-24T02:41:18;5.30;;;4.90;;
15307;SDS011;7755;52.208;6.964;2022-07-24T02:45:21;5.23;;;4.87;;
15307;SDS011;7755;52.208;6.964;2022-07-24T02:49:24;5.77;;;5.37;;
15307;SDS011;7755;52.208;6.964;2022-07-24T02:53:26;5.50;;;4.93;;
15307;SDS011;7755;52.208;6.964;2022-07-24T02:57:29;5.37;;;4.97;;
15307;SDS011;7755;52.208;6.964;2022-07-24T03:01:33;6.17;;;5.67;;
15307;SDS011;7755;52.208;6.964;2022-07-24T03:05:35;5.87;;;5.47;;
15307;SDS011;7755;52.208;6.964;2022-07-24T03:09:37;6.83;;;6.33;;
15307;SDS011;7755;52.208;6.964;2022-07-24T03:13:40;6.00;;;5.50;;
15307;SDS011;7755;52.208;6.964;2022-07-24T03:17:49;6.17;;;5.67;;
15307;SDS011;7755;52.208;6.964;2022-07-24T03:21:53;5.37;;;5.03;;
15307;SDS011;7755;52.208;6.964;2022-07-24T03:25:56;5.60;;;5.10;;
15307;SDS011;7755;52.208;6.964;2022-07-24T03:29:58;5.77;;;5.27;;
15307;SDS011;7755;52.208;6.964;2022-07-24T03:34:01;5.97;;;5.47;;
15307;SDS011;7755;52.208;6.964;2022-07-24T03:38:03;5.60;;;5.20;;
15307;SDS011;7755;52.208;6.964;2022-07-24T03:42:05;6.60;;;6.10;;
15307;SDS011;7755;52.208;6.964;2022-07-24T03:46:07;7.03;;;6.43;;
15307;SDS011;7755;52.208;6.964;2022-07-24T03:50:11;7.50;;;6.90;;
15307;SDS011;7755;52.208;6.964;2022-07-24T03:54:13;6.60;;;6.10;;
15307;SDS011;7755;52.208;6.964;2022-07-24T03:58:15;10.93;;;9.60;;
15307;SDS011;7755;52.208;6.964;2022-07-24T04:02:17;10.10;;;9.20;;
15307;SDS011;7755;52.208;6.964;2022-07-24T04:06:21;6.27;;;5.77;;
15307;SDS011;7755;52.208;6.964;2022-07-24T04:10:23;6.23;;;5.73;;
15307;SDS011;7755;52.208;6.964;2022-07-24T04:14:25;5.43;;;5.13;;
15307;SDS011;7755;52.208;6.964;2022-07-24T04:18:27;6.97;;;6.37;;
15307;SDS011;7755;52.208;6.964;2022-07-24T04:22:31;6.27;;;5.77;;
15307;SDS011;7755;52.208;6.964;2022-07-24T04:26:33;6.80;;;6.30;;
15307;SDS011;7755;52.208;6.964;2022-07-24T04:30:35;5.90;;;5.50;;
15307;SDS011;7755;52.208;6.964;2022-07-24T04:34:38;5.67;;;5.27;;
15307;SDS011;7755;52.208;6.964;2022-07-24T04:38:41;5.87;;;5.47;;
15307;SDS011;7755;52.208;6.964;2022-07-24T04:42:44;6.00;;;5.50;;
15307;SDS011;7755;52.208;6.964;2022-07-24T04:46:46;7.17;;;6.67;;
15307;SDS011;7755;52.208;6.964;2022-07-24T04:50:48;6.37;;;5.87;;
15307;SDS011;7755;52.208;6.964;2022-07-24T04:54:52;5.93;;;5.53;;
15307;SDS011;7755;52.208;6.964;2022-07-24T04:58:53;6.70;;;6.20;;
15307;SDS011;7755;52.208;6.964;2022-07-24T05:03:03;6.80;;;6.20;;
15307;SDS011;7755;52.208;6.964;2022-07-24T05:07:05;7.67;;;7.03;;
15307;SDS011;7755;52.208;6.964;2022-07-24T05:11:09;8.67;;;7.90;;
15307;SDS011;7755;52.208;6.964;2022-07-24T05:15:11;9.70;;;8.80;;
15307;SDS011;7755;52.208;6.964;2022-07-24T05:19:14;8.00;;;7.40;;
15307;SDS011;7755;52.208;6.964;2022-07-24T05:23:16;7.87;;;7.17;;
15307;SDS011;7755;52.208;6.964;2022-07-24T05:27:19;6.93;;;6.43;;
15307;SDS011;7755;52.208;6.964;2022-07-24T05:31:21;8.13;;;7.43;;
15307;SDS011;7755;52.208;6.964;2022-07-24T05:35:24;8.83;;;7.93;;
15307;SDS011;7755;52.208;6.964;2022-07-24T05:39:26;8.57;;;7.37;;
15307;SDS011;7755;52.208;6.964;2022-07-24T05:43:30;8.93;;;8.13;;
15307;SDS011;7755;52.208;6.964;2022-07-24T05:47:36;9.37;;;8.47;;
15307;SDS011;7755;52.208;6.964;2022-07-24T05:51:40;11.13;;;10.03;;
15307;SDS011;7755;52.208;6.964;2022-07-24T05:55:42;10.10;;;9.27;;
15307;SDS011;7755;52.208;6.964;2022-07-24T05:59:46;9.73;;;8.83;;
15307;SDS011;7755;52.208;6.964;2022-07-24T06:03:48;10.50;;;9.47;;
15307;SDS011;7755;52.208;6.964;2022-07-24T06:07:51;10.40;;;9.60;;
15307;SDS011;7755;52.208;6.964;2022-07-24T06:11:53;11.00;;;10.07;;
15307;SDS011;7755;52.208;6.964;2022-07-24T06:15:58;11.20;;;10.30;;
15307;SDS011;7755;52.208;6.964;2022-07-24T06:20:09;10.00;;;9.13;;
15307;SDS011;7755;52.208;6.964;2022-07-24T06:24:13;10.33;;;9.50;;
15307;SDS011;7755;52.208;6.964;2022-07-24T06:28:15;10.73;;;9.83;;
15307;SDS011;7755;52.208;6.964;2022-07-24T06:32:21;10.77;;;9.77;;
15307;SDS011;7755;52.208;6.964;2022-07-24T06:36:26;10.40;;;9.23;;
15307;SDS011;7755;52.208;6.964;2022-07-24T06:45:05;11.50;;;10.33;;
15307;SDS011;7755;52.208;6.964;2022-07-24T06:53:53;10.20;;;9.33;;
15307;SDS011;7755;52.208;6.964;2022-07-24T06:57:57;10.07;;;9.17;;
15307;SDS011;7755;52.208;6.964;2022-07-24T07:01:59;11.07;;;9.83;;
15307;SDS011;7755;52.208;6.964;2022-07-24T07:06:08;11.40;;;10.30;;
15307;SDS011;7755;52.208;6.964;2022-07-24T07:10:12;10.13;;;9.23;;
15307;SDS011;7755;52.208;6.964;2022-07-24T07:14:15;10.97;;;9.97;;
15307;SDS011;7755;52.208;6.964;2022-07-24T07:18:17;11.27;;;10.27;;
15307;SDS011;7755;52.208;6.964;2022-07-24T07:22:21;11.07;;;10.07;;
15307;SDS011;7755;52.208;6.964;2022-07-24T07:26:23;11.60;;;10.50;;
15307;SDS011;7755;52.208;6.964;2022-07-24T07:30:27;13.27;;;10.50;;
15307;SDS011;7755;52.208;6.964;2022-07-24T07:47:41;11.17;;;9.47;;
15307;SDS011;7755;52.208;6.964;2022-07-24T07:51:44;11.70;;;10.70;;
15307;SDS011;7755;52.208;6.964;2022-07-24T07:55:49;12.37;;;11.27;;
15307;SDS011;7755;52.208;6.964;2022-07-24T07:59:52;13.80;;;12.50;;
15307;SDS011;7755;52.208;6.964;2022-07-24T08:03:54;15.37;;;13.97;;
15307;SDS011;7755;52.208;6.964;2022-07-24T08:07:57;13.80;;;12.50;;
15307;SDS011;7755;52.208;6.964;2022-07-24T08:12:00;15.77;;;14.37;;
15307;SDS011;7755;52.208;6.964;2022-07-24T08:16:02;15.47;;;13.90;;
15307;SDS011;7755;52.208;6.964;2022-07-24T08:20:05;17.17;;;15.57;;
15307;SDS011;7755;52.208;6.964;2022-07-24T08:24:09;15.00;;;13.50;;
15307;SDS011;7755;52.208;6.964;2022-07-24T08:28:13;15.33;;;13.80;;
15307;SDS011;7755;52.208;6.964;2022-07-24T08:32:15;16.47;;;14.93;;
15307;SDS011;7755;52.208;6.964;2022-07-24T08:36:18;15.77;;;14.37;;
15307;SDS011;7755;52.208;6.964;2022-07-24T08:40:21;16.20;;;14.80;;
15307;SDS011;7755;52.208;6.964;2022-07-24T08:44:25;16.20;;;14.50;;
15307;SDS011;7755;52.208;6.964;2022-07-24T08:52:55;13.10;;;11.97;;
15307;SDS011;7755;52.208;6.964;2022-07-24T08:56:57;14.50;;;13.00;;
15307;SDS011;7755;52.208;6.964;2022-07-24T09:01:03;12.50;;;11.27;;
15307;SDS011;7755;52.208;6.964;2022-07-24T09:05:06;10.97;;;9.87;;
15307;SDS011;7755;52.208;6.964;2022-07-24T09:09:09;12.73;;;11.48;;
15307;SDS011;7755;52.208;6.964;2022-07-24T09:13:17;11.65;;;10.27;;
15307;SDS011;7755;52.208;6.964;2022-07-24T09:21:34;9.50;;;8.73;;
15307;SDS011;7755;52.208;6.964;2022-07-24T09:25:38;9.00;;;8.23;;
15307;SDS011;7755;52.208;6.964;2022-07-24T09:29:40;10.25;;;9.45;;
15307;SDS011;7755;52.208;6.964;2022-07-24T09:33:44;8.63;;;7.57;;
15307;SDS011;7755;52.208;6.964;2022-07-24T09:37:52;9.65;;;8.02;;
15307;SDS011;7755;52.208;6.964;2022-07-24T09:41:56;8.75;;;8.05;;
15307;SDS011;7755;52.208;6.964;2022-07-24T09:45:59;9.93;;;8.27;;
15307;SDS011;7755;52.208;6.964;2022-07-24T09:50:17;8.25;;;7.53;;
15307;SDS011;7755;52.208;6.964;2022-07-24T09:54:26;7.93;;;7.20;;
15307;SDS011;7755;52.208;6.964;2022-07-24T09:58:32;6.22;;;5.70;;
15307;SDS011;7755;52.208;6.964;2022-07-24T10:02:37;5.95;;;5.38;;
15307;SDS011;7755;52.208;6.964;2022-07-24T10:06:41;6.18;;;5.68;;
15307;SDS011;7755;52.208;6.964;2022-07-24T10:28:45;9.05;;;8.13;;
15307;SDS011;7755;52.208;6.964;2022-07-24T10:32:57;7.05;;;6.40;;
15307;SDS011;7755;52.208;6.964;2022-07-24T10:37:03;10.32;;;7.30;;
15307;SDS011;7755;52.208;6.964;2022-07-24T10:41:21;6.57;;;5.80;;
15307;SDS011;7755;52.208;6.964;2022-07-24T10:45:26;6.15;;;5.55;;
15307;SDS011;7755;52.208;6.964;2022-07-24T10:49:41;6.45;;;5.85;;
15307;SDS011;7755;52.208;6.964;2022-07-24T10:53:52;6.18;;;5.68;;
15307;SDS011;7755;52.208;6.964;2022-07-24T10:57:59;6.80;;;4.97;;
15307;SDS011;7755;52.208;6.964;2022-07-24T11:06:42;5.22;;;4.72;;
15307;SDS011;7755;52.208;6.964;2022-07-24T11:10:52;4.97;;;4.55;;
15307;SDS011;7755;52.208;6.964;2022-07-24T11:15:06;4.85;;;4.32;;
15307;SDS011;7755;52.208;6.964;2022-07-24T11:19:31;4.43;;;4.07;;
15307;SDS011;7755;52.208;6.964;2022-07-24T11:23:34;4.05;;;3.70;;
15307;SDS011;7755;52.208;6.964;2022-07-24T11:27:43;4.45;;;4.15;;
15307;SDS011;7755;52.208;6.964;2022-07-24T11:31:48;4.93;;;4.13;;
15307;SDS011;7755;52.208;6.964;2022-07-24T11:35:53;4.18;;;3.80;;
15307;SDS011;7755;52.208;6.964;2022-07-24T11:39:55;4.45;;;4.15;;
15307;SDS011;7755;52.208;6.964;2022-07-24T11:43:57;4.45;;;4.05;;
15307;SDS011;7755;52.208;6.964;2022-07-24T11:48:00;4.18;;;3.75;;
15307;SDS011;7755;52.208;6.964;2022-07-24T11:52:05;4.32;;;3.95;;
15307;SDS011;7755;52.208;6.964;2022-07-24T12:00:40;4.75;;;4.45;;
15307;SDS011;7755;52.208;6.964;2022-07-24T12:04:45;4.03;;;3.72;;
15307;SDS011;7755;52.208;6.964;2022-07-24T12:08:50;4.30;;;3.92;;
15307;SDS011;7755;52.208;6.964;2022-07-24T12:12:55;4.47;;;4.18;;
15307;SDS011;7755;52.208;6.964;2022-07-24T12:16:58;3.60;;;3.28;;
15307;SDS011;7755;52.208;6.964;2022-07-24T12:21:01;3.95;;;3.53;;
15307;SDS011;7755;52.208;6.964;2022-07-24T12:25:07;3.67;;;3.40;;
15307;SDS011;7755;52.208;6.964;2022-07-24T12:29:10;3.47;;;3.17;;
15307;SDS011;7755;52.208;6.964;2022-07-24T12:33:19;3.25;;;2.95;;
15307;SDS011;7755;52.208;6.964;2022-07-24T12:37:22;4.07;;;3.78;;
15307;SDS011;7755;52.208;6.964;2022-07-24T12:41:26;3.30;;;3.10;;
15307;SDS011;7755;52.208;6.964;2022-07-24T12:45:30;3.88;;;3.50;;
15307;SDS011;7755;52.208;6.964;2022-07-24T12:49:39;14.20;;;12.98;;
15307;SDS011;7755;52.208;6.964;2022-07-24T12:53:42;3.50;;;3.30;;
15307;SDS011;7755;52.208;6.964;2022-07-24T12:57:46;4.07;;;3.72;;
15307;SDS011;7755;52.208;6.964;2022-07-24T13:01:48;3.88;;;3.58;;
15307;SDS011;7755;52.208;6.964;2022-07-24T13:05:54;3.60;;;3.30;;
15307;SDS011;7755;52.208;6.964;2022-07-24T13:09:57;3.15;;;2.90;;
15307;SDS011;7755;52.208;6.964;2022-07-24T13:14:01;3.08;;;2.88;;
15307;SDS011;7755;52.208;6.964;2022-07-24T13:18:05;2.60;;;2.50;;
15307;SDS011;7755;52.208;6.964;2022-07-24T13:22:08;3.13;;;2.83;;
15307;SDS011;7755;52.208;6.964;2022-07-24T13:26:16;2.88;;;2.67;;
15307;SDS011;7755;52.208;6.964;2022-07-24T13:30:19;3.17;;;2.80;;
15307;SDS011;7755;52.208;6.964;2022-07-24T13:34:22;5.70;;;5.30;;
15307;SDS011;7755;52.208;6.964;2022-07-24T13:38:26;2.80;;;2.70;;
15307;SDS011;7755;52.208;6.964;2022-07-24T13:42:28;2.97;;;2.80;;
15307;SDS011;7755;52.208;6.964;2022-07-24T13:46:32;3.22;;;2.92;;
15307;SDS011;7755;52.208;6.964;2022-07-24T13:50:34;3.17;;;2.97;;
15307;SDS011;7755;52.208;6.964;2022-07-24T13:54:37;3.42;;;2.80;;
15307;SDS011;7755;52.208;6.964;2022-07-24T13:58:40;2.90;;;2.70;;
15307;SDS011;7755;52.208;6.964;2022-07-24T14:02:45;3.65;;;3.40;;
15307;SDS011;7755;52.208;6.964;2022-07-24T14:06:47;3.00;;;2.80;;
15307;SDS011;7755;52.208;6.964;2022-07-24T14:10:49;3.10;;;2.90;;
15307;SDS011;7755;52.208;6.964;2022-07-24T14:14:52;3.15;;;2.95;;
15307;SDS011;7755;52.208;6.964;2022-07-24T14:18:56;3.03;;;2.83;;
15307;SDS011;7755;52.208;6.964;2022-07-24T14:22:59;3.15;;;2.85;;
15307;SDS011;7755;52.208;6.964;2022-07-24T14:27:01;3.42;;;2.95;;
15307;SDS011;7755;52.208;6.964;2022-07-24T14:31:03;3.17;;;2.60;;
15307;SDS011;7755;52.208;6.964;2022-07-24T14:35:07;2.70;;;2.50;;
15307;SDS011;7755;52.208;6.964;2022-07-24T14:39:10;4.15;;;3.28;;
15307;SDS011;7755;52.208;6.964;2022-07-24T14:43:12;3.25;;;3.00;;
15307;SDS011;7755;52.208;6.964;2022-07-24T14:47:14;3.33;;;3.20;;
15307;SDS011;7755;52.208;6.964;2022-07-24T14:51:19;3.08;;;2.88;;
15307;SDS011;7755;52.208;6.964;2022-07-24T14:55:24;2.70;;;2.60;;
15307;SDS011;7755;52.208;6.964;2022-07-24T14:59:26;2.55;;;2.42;;
15307;SDS011;7755;52.208;6.964;2022-07-24T15:03:29;3.35;;;3.15;;
15307;SDS011;7755;52.208;6.964;2022-07-24T15:07:32;2.63;;;2.53;;
15307;SDS011;7755;52.208;6.964;2022-07-24T15:11:34;2.80;;;2.70;;
15307;SDS011;7755;52.208;6.964;2022-07-24T15:15:38;2.90;;;2.70;;
15307;SDS011;7755;52.208;6.964;2022-07-24T15:19:40;3.30;;;3.10;;
15307;SDS011;7755;52.208;6.964;2022-07-24T15:23:44;3.22;;;3.03;;
15307;SDS011;7755;52.208;6.964;2022-07-24T15:27:46;3.08;;;2.85;;
15307;SDS011;7755;52.208;6.964;2022-07-24T15:31:48;2.78;;;2.67;;
15307;SDS011;7755;52.208;6.964;2022-07-24T15:35:50;3.40;;;3.15;;
15307;SDS011;7755;52.208;6.964;2022-07-24T15:39:54;3.08;;;2.88;;
15307;SDS011;7755;52.208;6.964;2022-07-24T15:43:58;3.30;;;3.10;;
15307;SDS011;7755;52.208;6.964;2022-07-24T15:48:00;3.10;;;2.90;;
15307;SDS011;7755;52.208;6.964;2022-07-24T15:52:02;2.80;;;2.50;;
15307;SDS011;7755;52.208;6.964;2022-07-24T15:56:06;2.88;;;2.67;;
15307;SDS011;7755;52.208;6.964;2022-07-24T16:00:10;2.85;;;2.65;;
15307;SDS011;7755;52.208;6.964;2022-07-24T16:04:13;2.60;;;2.40;;
15307;SDS011;7755;52.208;6.964;2022-07-24T16:08:16;2.78;;;2.60;;
15307;SDS011;7755;52.208;6.964;2022-07-24T16:12:21;8.88;;;8.18;;
15307;SDS011;7755;52.208;6.964;2022-07-24T16:16:24;3.45;;;3.08;;
15307;SDS011;7755;52.208;6.964;2022-07-24T16:20:27;3.28;;;3.08;;
15307;SDS011;7755;52.208;6.964;2022-07-24T16:24:31;3.60;;;3.35;;
15307;SDS011;7755;52.208;6.964;2022-07-24T16:28:35;3.42;;;3.22;;
15307;SDS011;7755;52.208;6.964;2022-07-24T16:32:48;4.20;;;3.67;;
15307;SDS011;7755;52.208;6.964;2022-07-24T16:37:01;3.78;;;3.40;;
15307;SDS011;7755;52.208;6.964;2022-07-24T16:41:05;3.28;;;3.05;;
15307;SDS011;7755;52.208;6.964;2022-07-24T16:45:09;3.33;;;3.10;;
15307;SDS011;7755;52.208;6.964;2022-07-24T16:49:13;3.65;;;3.45;;
15307;SDS011;7755;52.208;6.964;2022-07-24T16:53:15;3.70;;;3.50;;
15307;SDS011;7755;52.208;6.964;2022-07-24T16:57:17;4.00;;;3.70;;
15307;SDS011;7755;52.208;6.964;2022-07-24T17:01:20;3.78;;;3.58;;
15307;SDS011;7755;52.208;6.964;2022-07-24T17:05:23;3.88;;;3.60;;
15307;SDS011;7755;52.208;6.964;2022-07-24T17:09:25;4.05;;;3.75;;
15307;SDS011;7755;52.208;6.964;2022-07-24T17:13:27;4.68;;;4.28;;
15307;SDS011;7755;52.208;6.964;2022-07-24T17:17:33;5.22;;;4.32;;
15307;SDS011;7755;52.208;6.964;2022-07-24T17:21:57;5.03;;;4.63;;
15307;SDS011;7755;52.208;6.964;2022-07-24T17:26:00;4.38;;;4.00;;
15307;SDS011;7755;52.208;6.964;2022-07-24T17:30:03;4.78;;;4.10;;
15307;SDS011;7755;52.208;6.964;2022-07-24T17:34:07;5.35;;;4.85;;
15307;SDS011;7755;52.208;6.964;2022-07-24T17:38:09;4.40;;;4.05;;
15307;SDS011;7755;52.208;6.964;2022-07-24T17:42:12;4.32;;;4.00;;
15307;SDS011;7755;52.208;6.964;2022-07-24T17:46:14;4.60;;;4.30;;
15307;SDS011;7755;52.208;6.964;2022-07-24T17:50:18;6.55;;;5.95;;
15307;SDS011;7755;52.208;6.964;2022-07-24T17:54:23;7.32;;;6.63;;
15307;SDS011;7755;52.208;6.964;2022-07-24T17:58:25;4.75;;;4.45;;
15307;SDS011;7755;52.208;6.964;2022-07-24T18:02:28;4.57;;;4.28;;
15307;SDS011;7755;52.208;6.964;2022-07-24T18:06:32;4.47;;;4.18;;
15307;SDS011;7755;52.208;6.964;2022-07-24T18:10:34;4.82;;;4.53;;
15307;SDS011;7755;52.208;6.964;2022-07-24T18:14:37;5.70;;;5.30;;
15307;SDS011;7755;52.208;6.964;2022-07-24T18:18:51;6.65;;;6.10;;
15307;SDS011;7755;52.208;6.964;2022-07-24T18:22:54;4.70;;;4.40;;
15307;SDS011;7755;52.208;6.964;2022-07-24T18:26:58;5.05;;;4.65;;
15307;SDS011;7755;52.208;6.964;2022-07-24T18:31:00;4.68;;;4.32;;
15307;SDS011;7755;52.208;6.964;2022-07-24T18:35:02;5.00;;;4.50;;
15307;SDS011;7755;52.208;6.964;2022-07-24T18:39:08;4.90;;;4.50;;
15307;SDS011;7755;52.208;6.964;2022-07-24T18:43:15;4.80;;;4.40;;
15307;SDS011;7755;52.208;6.964;2022-07-24T18:47:18;7.72;;;7.03;;
15307;SDS011;7755;52.208;6.964;2022-07-24T18:51:21;7.57;;;6.95;;
15307;SDS011;7755;52.208;6.964;2022-07-24T18:55:26;6.57;;;6.07;;
15307;SDS011;7755;52.208;6.964;2022-07-24T18:59:29;5.60;;;5.10;;
15307;SDS011;7755;52.208;6.964;2022-07-24T19:03:31;4.90;;;4.50;;
15307;SDS011;7755;52.208;6.964;2022-07-24T19:07:33;5.03;;;4.47;;
15307;SDS011;7755;52.208;6.964;2022-07-24T19:11:40;4.75;;;4.32;;
15307;SDS011;7755;52.208;6.964;2022-07-24T19:15:43;5.28;;;4.75;;
15307;SDS011;7755;52.208;6.964;2022-07-24T19:19:45;4.72;;;4.43;;
15307;SDS011;7755;52.208;6.964;2022-07-24T19:23:47;5.13;;;4.72;;
15307;SDS011;7755;52.208;6.964;2022-07-24T19:27:51;4.65;;;4.35;;
15307;SDS011;7755;52.208;6.964;2022-07-24T19:31:53;4.82;;;4.53;;
15307;SDS011;7755;52.208;6.964;2022-07-24T19:35:59;5.45;;;5.05;;
15307;SDS011;7755;52.208;6.964;2022-07-24T19:40:02;4.95;;;4.65;;
15307;SDS011;7755;52.208;6.964;2022-07-24T19:44:07;5.47;;;5.05;;
15307;SDS011;7755;52.208;6.964;2022-07-24T19:48:12;5.40;;;5.00;;
15307;SDS011;7755;52.208;6.964;2022-07-24T19:52:15;5.50;;;5.10;;
15307;SDS011;7755;52.208;6.964;2022-07-24T20:00:26;5.80;;;5.30;;
15307;SDS011;7755;52.208;6.964;2022-07-24T20:04:28;6.43;;;5.83;;
15307;SDS011;7755;52.208;6.964;2022-07-24T20:08:30;8.37;;;7.57;;
15307;SDS011;7755;52.208;6.964;2022-07-24T20:12:34;9.33;;;8.40;;
15307;SDS011;7755;52.208;6.964;2022-07-24T20:16:38;8.00;;;7.30;;
15307;SDS011;7755;52.208;6.964;2022-07-24T20:20:40;6.37;;;5.77;;
15307;SDS011;7755;52.208;6.964;2022-07-24T20:24:46;5.47;;;5.03;;
15307;SDS011;7755;52.208;6.964;2022-07-24T20:28:49;5.83;;;5.37;;
15307;SDS011;7755;52.208;6.964;2022-07-24T20:32:53;5.17;;;4.77;;
15307;SDS011;7755;52.208;6.964;2022-07-24T20:36:55;5.23;;;4.83;;
15307;SDS011;7755;52.208;6.964;2022-07-24T20:41:11;6.57;;;6.07;;
15307;SDS011;7755;52.208;6.964;2022-07-24T20:45:13;6.10;;;5.70;;
15307;SDS011;7755;52.208;6.964;2022-07-24T20:49:20;8.00;;;7.30;;
15307;SDS011;7755;52.208;6.964;2022-07-24T20:53:24;7.00;;;6.40;;
15307;SDS011;7755;52.208;6.964;2022-07-24T20:57:27;6.87;;;6.37;;
15307;SDS011;7755;52.208;6.964;2022-07-24T21:01:29;8.53;;;7.80;;
15307;SDS011;7755;52.208;6.964;2022-07-24T21:05:37;8.23;;;7.63;;
15307;SDS011;7755;52.208;6.964;2022-07-24T21:09:40;7.30;;;6.70;;
15307;SDS011;7755;52.208;6.964;2022-07-24T21:36:14;6.93;;;6.30;;
15307;SDS011;7755;52.208;6.964;2022-07-24T21:40:17;6.47;;;5.97;;
15307;SDS011;7755;52.208;6.964;2022-07-24T21:44:20;8.10;;;7.50;;
15307;SDS011;7755;52.208;6.964;2022-07-24T21:48:22;7.30;;;6.60;;
15307;SDS011;7755;52.208;6.964;2022-07-24T21:52:25;7.60;;;6.90;;
15307;SDS011;7755;52.208;6.964;2022-07-24T21:56:30;8.57;;;7.73;;
15307;SDS011;7755;52.208;6.964;2022-07-24T22:00:34;8.07;;;7.37;;
15307;SDS011;7755;52.208;6.964;2022-07-24T22:04:38;8.00;;;7.30;;
15307;SDS011;7755;52.208;6.964;2022-07-24T22:08:40;7.87;;;7.17;;
15307;SDS011;7755;52.208;6.964;2022-07-24T22:12:44;6.20;;;5.80;;
15307;SDS011;7755;52.208;6.964;2022-07-24T22:16:46;8.17;;;7.47;;
15307;SDS011;7755;52.208;6.964;2022-07-24T22:20:48;7.30;;;6.63;;
15307;SDS011;7755;52.208;6.964;2022-07-24T22:24:50;7.37;;;6.77;;
15307;SDS011;7755;52.208;6.964;2022-07-24T22:28:54;7.87;;;7.27;;
15307;SDS011;7755;52.208;6.964;2022-07-24T22:33:08;7.80;;;7.30;;
15307;SDS011;7755;52.208;6.964;2022-07-24T22:37:12;7.77;;;7.07;;
15307;SDS011;7755;52.208;6.964;2022-07-24T22:41:17;8.37;;;7.57;;
15307;SDS011;7755;52.208;6.964;2022-07-24T22:45:21;8.97;;;8.20;;
15307;SDS011;7755;52.208;6.964;2022-07-24T22:49:24;9.07;;;8.37;;
15307;SDS011;7755;52.208;6.964;2022-07-24T22:53:28;9.17;;;8.27;;
15307;SDS011;7755;52.208;6.964;2022-07-24T22:57:30;8.43;;;7.73;;
15307;SDS011;7755;52.208;6.964;2022-07-24T23:01:35;8.80;;;7.90;;
15307;SDS011;7755;52.208;6.964;2022-07-24T23:05:37;9.40;;;8.60;;
15307;SDS011;7755;52.208;6.964;2022-07-24T23:09:40;8.30;;;7.60;;
15307;SDS011;7755;52.208;6.964;2022-07-24T23:13:43;9.40;;;8.37;;
15307;SDS011;7755;52.208;6.964;2022-07-24T23:17:47;10.17;;;9.27;;
15307;SDS011;7755;52.208;6.964;2022-07-24T23:21:49;9.10;;;8.40;;
15307;SDS011;7755;52.208;6.964;2022-07-24T23:25:51;9.47;;;8.67;;
15307;SDS011;7755;52.208;6.964;2022-07-24T23:29:54;8.50;;;7.83;;
15307;SDS011;7755;52.208;6.964;2022-07-24T23:33:58;8.73;;;8.00;;
15307;SDS011;7755;52.208;6.964;2022-07-24T23:38:00;9.10;;;8.40;;
15307;SDS011;7755;52.208;6.964;2022-07-24T23:42:02;8.40;;;7.83;;
15307;SDS011;7755;52.208;6.964;2022-07-24T23:46:05;9.80;;;8.80;;
15307;SDS011;7755;52.208;6.964;2022-07-24T23:50:10;9.67;;;8.87;;
15307;SDS011;7755;52.208;6.964;2022-07-24T23:54:16;9.83;;;9.03;;
15307;SDS011;7755;52.208;6.964;2022-07-24T23:58:17;11.70;;;10.60;;
